Time;durP1;ratioP1;P1;durP2;ratioP2;P2;SDS_P1;SDS_P2;PMS_P1;PMS_P2;Temp;Humidity;BMP_temperature;BMP_pressure;BME280_temperature;BME280_humidity;BME280_pressure;Samples;Min_cycle;Max_cycle;Signal;HPM_P1;HPM_P2
2022/07/03 00:00:07;;;;;;;3.50;3.20;;;21.00;99.90;;;;;;5057483;28;20199;-73
2022/07/03 00:02:33;;;;;;;3.45;3.03;;;21.00;99.90;;;;;;5057640;28;20218;-73
2022/07/03 00:04:58;;;;;;;3.60;2.83;;;21.00;99.90;;;;;;5057669;28;20290;-73
2022/07/03 00:07:24;;;;;;;4.50;3.42;;;21.00;99.90;;;;;;5057205;28;20223;-73
2022/07/03 00:09:50;;;;;;;4.90;3.40;;;21.00;99.90;;;;;;5057141;28;20195;-72
2022/07/03 00:12:15;;;;;;;3.72;3.35;;;20.90;99.90;;;;;;5057768;28;20548;-73
2022/07/03 00:14:41;;;;;;;3.88;2.90;;;20.90;99.90;;;;;;5057076;28;20203;-73
2022/07/03 00:17:07;;;;;;;5.80;3.40;;;20.80;99.90;;;;;;5057351;28;20234;-73
2022/07/03 00:19:32;;;;;;;5.38;3.30;;;20.80;99.90;;;;;;5068409;23;20230;-70
2022/07/03 00:22:04;;;;;;;3.47;3.08;;;20.80;99.90;;;;;;4997302;28;20237;-73
2022/07/03 00:24:45;;;;;;;3.70;3.15;;;20.70;99.90;;;;;;4997843;28;20181;-75
2022/07/03 00:27:11;;;;;;;5.50;3.17;;;20.70;99.90;;;;;;4997862;28;20683;-73
2022/07/03 00:29:40;;;;;;;3.92;3.55;;;20.60;99.90;;;;;;4996813;28;20224;-72
2022/07/03 00:32:08;;;;;;;4.18;3.05;;;20.60;99.90;;;;;;4997138;28;20206;-73
2022/07/03 00:34:34;;;;;;;4.50;3.20;;;20.60;99.90;;;;;;4997236;28;20710;-71
2022/07/03 00:37:01;;;;;;;5.72;3.50;;;20.50;99.90;;;;;;4997432;28;20248;-72
2022/07/03 00:39:27;;;;;;;4.60;3.35;;;20.50;99.90;;;;;;4979644;28;20196;-74
2022/07/03 00:42:04;;;;;;;3.65;3.13;;;20.50;99.90;;;;;;4997283;28;20217;-72
2022/07/03 00:44:32;;;;;;;7.93;3.60;;;20.50;99.90;;;;;;4996914;28;20760;-72
2022/07/03 00:47:01;;;;;;;3.63;3.13;;;20.40;99.90;;;;;;4997312;28;20768;-71
2022/07/03 00:49:29;;;;;;;3.60;3.30;;;20.40;99.90;;;;;;4979122;28;20730;-72
2022/07/03 00:51:56;;;;;;;4.57;3.22;;;20.40;99.90;;;;;;4997139;28;20221;-72
2022/07/03 00:54:22;;;;;;;3.97;3.60;;;20.30;99.90;;;;;;4997517;28;20659;-73
2022/07/03 00:56:54;;;;;;;6.20;3.78;;;20.30;99.90;;;;;;4985027;28;20218;-71
2022/07/03 00:59:19;;;;;;;4.38;3.45;;;20.30;99.90;;;;;;4977232;28;20726;-71
2022/07/03 01:01:46;;;;;;;3.97;3.55;;;20.20;99.90;;;;;;4974611;28;20222;-71
2022/07/03 01:04:12;;;;;;;4.15;3.33;;;20.20;99.90;;;;;;4974814;28;20567;-72
2022/07/03 01:06:50;;;;;;;6.00;3.58;;;20.10;99.90;;;;;;4974582;28;20197;-72
2022/07/03 01:09:20;;;;;;;4.93;3.20;;;20.10;99.90;;;;;;4974507;28;20182;-72
2022/07/03 01:11:55;;;;;;;4.85;3.45;;;20.10;99.90;;;;;;4974550;28;20210;-72
2022/07/03 01:14:32;;;;;;;4.22;3.78;;;20.10;99.90;;;;;;4974271;28;20890;-72
2022/07/03 01:17:06;;;;;;;4.90;3.63;;;20.00;99.90;;;;;;4956983;28;20234;-73
2022/07/03 01:19:42;;;;;;;3.70;3.20;;;19.90;99.90;;;;;;4991290;28;20208;-72
2022/07/03 01:22:32;;;;;;;4.03;3.38;;;19.90;99.90;;;;;;4993709;28;20221;-71
2022/07/03 01:25:16;;;;;;;5.75;4.20;;;19.90;99.90;;;;;;4993392;28;20264;-71
2022/07/03 01:27:54;;;;;;;4.38;3.80;;;19.80;99.90;;;;;;4974509;28;20269;-70
2022/07/03 01:30:22;;;;;;;3.63;3.33;;;19.90;99.90;;;;;;4974302;28;20225;-72
2022/07/03 01:32:59;;;;;;;4.35;3.10;;;19.80;99.90;;;;;;4974172;28;20221;-72
2022/07/03 01:36:06;;;;;;;4.70;3.75;;;19.80;99.90;;;;;;4989194;28;20209;-71
2022/07/03 01:38:37;;;;;;;4.03;3.28;;;19.80;99.90;;;;;;4992826;28;20285;-72
2022/07/03 01:41:05;;;;;;;3.92;3.53;;;19.70;99.90;;;;;;4993193;28;20710;-71
2022/07/03 01:43:33;;;;;;;6.45;3.97;;;19.70;99.90;;;;;;4993304;28;20583;-72
2022/07/03 01:46:00;;;;;;;4.40;3.53;;;19.70;99.90;;;;;;4993337;28;20205;-71
2022/07/03 01:48:27;;;;;;;3.88;3.38;;;19.70;99.90;;;;;;4993381;28;20178;-71
2022/07/03 01:50:55;;;;;;;4.35;3.58;;;19.70;99.90;;;;;;4993128;28;20222;-72
2022/07/03 01:53:24;;;;;;;7.47;3.80;;;19.60;99.90;;;;;;4992816;28;20241;-76
2022/07/03 01:55:51;;;;;;;4.95;4.00;;;19.60;99.90;;;;;;4988762;28;20214;-74
2022/07/03 01:58:16;;;;;;;4.47;3.70;;;19.60;99.90;;;;;;4973364;28;20245;-74
2022/07/03 02:01:07;;;;;;;5.18;3.58;;;19.60;99.90;;;;;;4973315;28;20210;-71
2022/07/03 02:03:34;;;;;;;4.30;3.90;;;19.60;99.90;;;;;;4973824;28;20185;-71
2022/07/03 02:06:20;;;;;;;5.97;3.55;;;19.60;99.90;;;;;;4973739;28;20202;-71
2022/07/03 02:09:01;;;;;;;6.15;3.83;;;19.60;99.90;;;;;;4973213;28;20214;-72
2022/07/03 02:11:28;;;;;;;4.68;3.78;;;19.50;99.90;;;;;;4955198;28;20220;-72
2022/07/03 02:14:05;;;;;;;4.20;3.40;;;19.50;99.90;;;;;;4955834;28;20214;-74
2022/07/03 02:16:43;;;;;;;4.18;3.67;;;19.50;99.90;;;;;;4973169;28;20213;-71
2022/07/03 02:19:12;;;;;;;3.95;3.65;;;19.50;99.90;;;;;;4973065;28;20723;-72
2022/07/03 02:21:46;;;;;;;5.70;3.60;;;19.50;99.90;;;;;;4972983;28;20217;-71
2022/07/03 02:24:17;;;;;;;4.10;3.70;;;19.50;99.90;;;;;;4973716;28;20177;-72
2022/07/03 02:26:52;;;;;;;5.63;3.60;;;19.40;99.90;;;;;;4979651;28;20207;-72
2022/07/03 02:29:25;;;;;;;3.92;3.63;;;19.40;99.90;;;;;;4972864;28;20237;-72
2022/07/03 02:31:59;;;;;;;4.95;3.60;;;19.50;99.90;;;;;;4973055;28;20209;-71
2022/07/03 02:34:24;;;;;;;4.55;3.33;;;19.40;99.90;;;;;;4955784;28;20264;-71
2022/07/03 02:36:55;;;;;;;4.72;4.28;;;19.40;99.90;;;;;;4975087;28;20264;-72
2022/07/03 02:39:34;;;;;;;4.60;3.42;;;19.40;99.90;;;;;;4980898;28;20189;-70
2022/07/03 02:42:02;;;;;;;4.97;3.90;;;19.30;99.90;;;;;;4984252;28;20327;-71
2022/07/03 02:44:39;;;;;;;3.72;3.30;;;19.40;99.90;;;;;;4982659;28;20210;-72
2022/07/03 02:47:22;;;;;;;4.63;3.95;;;19.40;99.90;;;;;;4980596;28;20715;-72
2022/07/03 02:49:55;;;;;;;5.65;3.97;;;19.30;99.90;;;;;;4980328;28;20218;-72
2022/07/03 02:52:24;;;;;;;5.13;3.95;;;19.40;99.90;;;;;;4980254;28;20618;-75
2022/07/03 02:54:53;;;;;;;5.30;3.92;;;19.40;99.90;;;;;;4983778;28;20182;-72
2022/07/03 02:57:22;;;;;;;4.25;3.85;;;19.30;99.90;;;;;;4984334;28;20174;-71
2022/07/03 02:59:51;;;;;;;4.60;4.20;;;19.20;99.90;;;;;;4978882;28;20233;-71
2022/07/03 03:02:23;;;;;;;4.43;4.03;;;19.20;99.90;;;;;;4962844;28;20214;-74
2022/07/03 03:04:59;;;;;;;5.78;4.05;;;19.20;99.90;;;;;;4980433;28;20218;-71
2022/07/03 03:07:34;;;;;;;4.38;3.97;;;19.20;99.90;;;;;;4986090;28;20220;-72
2022/07/03 03:10:00;;;;;;;4.50;4.10;;;19.20;99.90;;;;;;4973774;28;20213;-72
2022/07/03 03:12:36;;;;;;;6.22;3.92;;;19.10;99.90;;;;;;4983187;28;20189;-74
2022/07/03 03:15:04;;;;;;;4.55;3.80;;;19.10;99.90;;;;;;4980551;28;20237;-73
2022/07/03 03:17:42;;;;;;;4.75;4.10;;;19.20;99.90;;;;;;4971847;28;20690;-71
2022/07/03 03:20:09;;;;;;;4.80;4.03;;;19.20;99.90;;;;;;4982933;28;20213;-71
2022/07/03 03:22:53;;;;;;;7.72;3.88;;;19.20;99.90;;;;;;4981184;28;20752;-71
2022/07/03 03:25:19;;;;;;;4.95;3.65;;;19.10;99.90;;;;;;4979538;28;20218;-72
2022/07/03 03:27:45;;;;;;;4.22;3.67;;;19.20;99.90;;;;;;4979683;28;20186;-72
2022/07/03 03:30:11;;;;;;;6.38;4.65;;;20.10;99.90;;;;;;4980200;28;20285;-72
2022/07/03 03:32:39;;;;;;;4.55;3.80;;;21.40;99.90;;;;;;4981660;28;20589;-71
2022/07/03 03:35:05;;;;;;;5.28;3.53;;;22.60;99.90;;;;;;4983207;28;20206;-71
2022/07/03 03:37:30;;;;;;;4.65;4.25;;;23.40;99.90;;;;;;4980943;28;20209;-69
2022/07/03 03:39:57;;;;;;;5.38;3.72;;;23.90;99.90;;;;;;4982827;28;20213;-70
2022/07/03 03:42:23;;;;;;;4.78;4.30;;;24.20;99.90;;;;;;4983015;28;20804;-70
2022/07/03 03:44:48;;;;;;;5.07;4.55;;;24.80;99.90;;;;;;4979697;28;20243;-70
2022/07/03 03:47:14;;;;;;;4.60;3.80;;;24.80;99.90;;;;;;4962153;28;20565;-72
2022/07/03 03:49:40;;;;;;;5.57;4.18;;;25.10;99.90;;;;;;4981789;28;20240;-70
2022/07/03 03:52:06;;;;;;;6.68;4.88;;;25.50;99.90;;;;;;4983009;28;20213;-71
2022/07/03 03:54:32;;;;;;;5.28;3.47;;;26.40;99.90;;;;;;4981748;28;20189;-70
2022/07/03 03:57:14;;;;;;;4.88;4.30;;;26.20;99.90;;;;;;4979926;28;20586;-72
2022/07/03 03:59:39;;;;;;;5.18;4.22;;;26.00;99.90;;;;;;4981805;28;20210;-72
2022/07/03 04:02:05;;;;;;;5.45;3.70;;;26.30;99.90;;;;;;4983127;28;20710;-73
2022/07/03 04:04:30;;;;;;;4.05;3.65;;;27.00;99.90;;;;;;4963904;28;20214;-72
2022/07/03 04:06:56;;;;;;;5.60;3.90;;;27.00;99.90;;;;;;4964714;28;20751;-72
2022/07/03 04:09:21;;;;;;;4.75;4.10;;;27.20;99.90;;;;;;4983237;28;20265;-73
2022/07/03 04:11:47;;;;;;;4.50;4.07;;;27.50;99.90;;;;;;4979669;28;20664;-71
2022/07/03 04:14:12;;;;;;;4.68;3.70;;;27.70;99.90;;;;;;4979756;28;20641;-72
2022/07/03 04:16:38;;;;;;;4.20;3.80;;;27.90;99.90;;;;;;4995828;28;20201;-74
2022/07/03 04:19:03;;;;;;;5.93;4.40;;;27.90;99.90;;;;;;4982846;28;20574;-72
2022/07/03 04:21:29;;;;;;;7.03;3.67;;;28.20;99.10;;;;;;4972346;28;20237;-72
2022/07/03 04:23:55;;;;;;;4.22;3.83;;;28.10;98.80;;;;;;4979724;28;20211;-73
2022/07/03 04:26:20;;;;;;;8.57;4.30;;;29.40;97.90;;;;;;4979365;28;20217;-72
2022/07/03 04:28:46;;;;;;;4.15;3.40;;;29.40;96.30;;;;;;4982691;28;20202;-72
2022/07/03 04:31:11;;;;;;;3.90;3.60;;;29.50;96.20;;;;;;4997657;28;20210;-73
2022/07/03 04:33:37;;;;;;;7.03;3.80;;;29.80;95.80;;;;;;4980480;28;20202;-72
2022/07/03 04:36:04;;;;;;;5.85;3.50;;;30.50;94.70;;;;;;4982111;28;20182;-72
2022/07/03 04:38:31;;;;;;;4.38;3.47;;;30.50;93.60;;;;;;4989665;28;20213;-73
2022/07/03 04:40:57;;;;;;;4.57;3.63;;;30.30;93.90;;;;;;5001240;28;20217;-72
2022/07/03 04:43:22;;;;;;;4.63;4.22;;;30.60;93.40;;;;;;4985789;28;20621;-73
2022/07/03 04:45:48;;;;;;;4.88;4.38;;;31.50;92.40;;;;;;4982733;28;20182;-72
2022/07/03 04:48:13;;;;;;;4.43;3.63;;;31.50;92.00;;;;;;4982973;28;20179;-72
2022/07/03 04:50:39;;;;;;;5.05;3.58;;;31.30;92.30;;;;;;4985129;28;20214;-73
2022/07/03 04:53:04;;;;;;;4.88;3.47;;;30.90;91.80;;;;;;4986106;28;20218;-74
2022/07/03 04:55:30;;;;;;;5.05;3.47;;;31.60;92.00;;;;;;4983035;28;20201;-72
2022/07/03 04:57:56;;;;;;;3.90;3.60;;;32.10;90.50;;;;;;4957115;28;20633;-73
2022/07/03 05:00:21;;;;;;;3.67;3.13;;;32.40;89.70;;;;;;4975193;28;20678;-73
2022/07/03 05:02:47;;;;;;;4.10;3.65;;;32.80;89.40;;;;;;4974709;28;20699;-72
2022/07/03 05:05:12;;;;;;;5.35;3.70;;;32.30;87.60;;;;;;4974837;28;20257;-73
2022/07/03 05:07:38;;;;;;;4.03;3.08;;;31.70;89.60;;;;;;4974648;28;20206;-73
2022/07/03 05:10:04;;;;;;;3.83;3.42;;;32.80;89.60;;;;;;4956759;28;20218;-73
2022/07/03 05:12:29;;;;;;;3.70;3.03;;;32.50;87.10;;;;;;4974962;28;20182;-73
2022/07/03 05:14:55;;;;;;;3.67;3.35;;;32.20;87.00;;;;;;4957005;28;20256;-73
2022/07/03 05:17:21;;;;;;;4.13;3.45;;;31.80;87.30;;;;;;4974341;28;20570;-72
2022/07/03 05:19:46;;;;;;;4.30;3.05;;;32.40;87.00;;;;;;4974112;28;20723;-72
2022/07/03 05:22:12;;;;;;;4.78;3.47;;;32.30;85.60;;;;;;4974624;28;20240;-73
2022/07/03 05:24:38;;;;;;;3.58;3.25;;;31.70;87.40;;;;;;4974542;28;20175;-72
2022/07/03 05:27:04;;;;;;;3.72;3.13;;;30.20;89.60;;;;;;4978231;28;20185;-73
2022/07/03 05:29:29;;;;;;;3.97;3.53;;;30.80;90.20;;;;;;4956414;28;20216;-74
2022/07/03 05:31:55;;;;;;;4.28;3.22;;;31.00;89.70;;;;;;4957206;28;20214;-72
2022/07/03 05:34:20;;;;;;;4.05;3.17;;;31.30;88.20;;;;;;4974008;28;20211;-75
2022/07/03 05:36:46;;;;;;;4.65;3.20;;;31.40;88.10;;;;;;4985684;28;20186;-72
2022/07/03 05:41:56;;;;;;;3.33;3.00;;;31.30;87.30;;;;;;4993275;28;20280;-72
2022/07/03 05:44:21;;;;;;;3.20;2.80;;;32.10;85.50;;;;;;4975618;28;20206;-72
2022/07/03 05:46:47;;;;;;;2.45;2.25;;;32.20;84.30;;;;;;4992368;28;20217;-72
2022/07/03 05:49:12;;;;;;;4.00;2.85;;;31.50;85.20;;;;;;4991663;28;20213;-73
2022/07/03 05:51:38;;;;;;;4.03;3.63;;;32.10;84.40;;;;;;4975452;28;20201;-73
2022/07/03 05:54:04;;;;;;;4.70;4.30;;;33.10;83.10;;;;;;4976189;28;20188;-73
2022/07/03 05:56:29;;;;;;;3.47;3.17;;;33.10;81.00;;;;;;4983344;28;20229;-73
2022/07/03 05:58:55;;;;;;;3.00;2.58;;;32.00;82.60;;;;;;4973293;28;20298;-72
2022/07/03 06:01:20;;;;;;;3.90;2.78;;;30.50;85.20;;;;;;4973612;28;20264;-73
2022/07/03 06:03:46;;;;;;;2.80;2.60;;;31.80;84.90;;;;;;4956221;28;20656;-73
2022/07/03 06:06:11;;;;;;;3.00;2.53;;;31.50;83.10;;;;;;4973826;28;20182;-72
2022/07/03 06:08:37;;;;;;;2.60;2.40;;;31.00;85.10;;;;;;4973152;28;20241;-72
2022/07/03 06:11:03;;;;;;;4.10;2.90;;;30.90;83.80;;;;;;4955956;28;20238;-73
2022/07/03 06:13:28;;;;;;;2.83;2.63;;;31.80;83.50;;;;;;4973293;28;20297;-73
2022/07/03 06:15:54;;;;;;;2.85;2.30;;;32.80;83.00;;;;;;4973265;28;20225;-73
2022/07/03 06:18:19;;;;;;;5.18;2.70;;;33.10;81.20;;;;;;4973638;28;20200;-73
2022/07/03 06:20:45;;;;;;;3.10;2.75;;;33.10;79.50;;;;;;5015728;23;20230;-72
2022/07/03 06:23:10;;;;;;;5.70;2.70;;;33.10;79.50;;;;;;5034815;28;20908;-73
2022/07/03 06:25:36;;;;;;;3.25;2.50;;;34.00;78.40;;;;;;5052392;28;20199;-73
2022/07/03 06:28:01;;;;;;;2.78;2.58;;;34.10;76.70;;;;;;5052179;28;20210;-71
2022/07/03 06:30:27;;;;;;;2.90;2.60;;;33.10;78.30;;;;;;5052902;28;20217;-73
2022/07/03 06:32:52;;;;;;;3.88;2.28;;;32.40;80.00;;;;;;5034959;28;20211;-73
2022/07/03 06:35:18;;;;;;;3.47;3.17;;;32.80;79.10;;;;;;5053634;28;20310;-73
2022/07/03 06:37:43;;;;;;;2.40;2.22;;;33.10;77.90;;;;;;5052920;28;20296;-72
2022/07/03 06:40:09;;;;;;;2.47;2.28;;;31.20;80.20;;;;;;5052024;28;20218;-72
2022/07/03 06:42:35;;;;;;;4.97;2.45;;;31.80;80.80;;;;;;5052538;28;20314;-72
2022/07/03 06:45:01;;;;;;;2.42;2.00;;;32.40;79.60;;;;;;5052946;28;20917;-72
2022/07/03 06:47:26;;;;;;;3.53;2.65;;;33.20;78.20;;;;;;5051225;28;20276;-72
2022/07/03 06:49:52;;;;;;;2.30;2.10;;;32.60;78.00;;;;;;5033265;28;20688;-72
2022/07/03 06:52:18;;;;;;;4.47;3.13;;;32.30;78.90;;;;;;5051353;28;20230;-72
2022/07/03 06:54:43;;;;;;;2.60;2.40;;;32.80;77.90;;;;;;5051395;28;20171;-73
2022/07/03 06:57:13;;;;;;;3.40;2.10;;;32.80;77.60;;;;;;5051811;28;20256;-73
2022/07/03 06:59:39;;;;;;;3.65;2.42;;;32.30;77.50;;;;;;5033475;28;20559;-72
2022/07/03 07:02:05;;;;;;;2.50;2.30;;;32.10;78.50;;;;;;5033252;28;20219;-72
2022/07/03 07:04:30;;;;;;;2.15;1.95;;;33.10;77.60;;;;;;5051403;28;20653;-72
2022/07/03 07:06:56;;;;;;;2.50;2.30;;;33.30;76.20;;;;;;5052344;28;20235;-72
2022/07/03 07:09:21;;;;;;;2.60;2.17;;;33.50;76.50;;;;;;5051297;28;20172;-72
2022/07/03 07:11:47;;;;;;;3.53;2.20;;;32.50;76.60;;;;;;5051203;28;20259;-72
2022/07/03 07:14:12;;;;;;;2.75;2.50;;;32.80;77.70;;;;;;5050967;28;20601;-72
2022/07/03 07:16:38;;;;;;;4.28;2.55;;;32.30;77.50;;;;;;5050901;28;20204;-72
2022/07/03 07:19:03;;;;;;;2.42;2.22;;;30.90;80.40;;;;;;5050852;28;20299;-73
2022/07/03 07:21:29;;;;;;;3.28;2.20;;;32.10;79.20;;;;;;5051294;28;20339;-73
2022/07/03 07:23:55;;;;;;;4.75;1.90;;;33.10;77.80;;;;;;5050945;28;20206;-73
2022/07/03 07:26:21;;;;;;;2.30;2.10;;;33.40;76.00;;;;;;5051256;28;20211;-73
2022/07/03 07:28:46;;;;;;;5.80;2.63;;;33.30;77.00;;;;;;5050647;28;20199;-73
2022/07/03 07:31:12;;;;;;;2.70;2.50;;;34.00;75.10;;;;;;5032774;28;20237;-73
2022/07/03 07:33:38;;;;;;;4.20;2.60;;;33.60;74.70;;;;;;5050726;28;20194;-73
2022/07/03 07:36:04;;;;;;;3.30;2.28;;;33.30;76.20;;;;;;5051320;28;20182;-72
2022/07/03 07:38:29;;;;;;;4.18;2.55;;;33.50;75.80;;;;;;5050520;28;20235;-73
2022/07/03 07:40:55;;;;;;;3.75;3.05;;;33.90;74.50;;;;;;5050631;28;20236;-73
2022/07/03 07:43:20;;;;;;;2.47;2.25;;;33.40;76.00;;;;;;5050624;28;20213;-72
2022/07/03 07:45:46;;;;;;;2.75;1.80;;;33.40;76.00;;;;;;5051146;28;20164;-72
2022/07/03 07:48:12;;;;;;;3.60;2.20;;;33.30;75.80;;;;;;5050967;28;20171;-71
2022/07/03 07:50:37;;;;;;;2.97;2.60;;;34.00;74.50;;;;;;5050315;28;20656;-72
2022/07/03 07:53:03;;;;;;;2.17;2.05;;;33.40;74.50;;;;;;5050637;28;20219;-72
2022/07/03 07:55:28;;;;;;;3.38;2.83;;;33.30;75.00;;;;;;5050372;28;20211;-72
2022/07/03 07:57:54;;;;;;;2.45;2.25;;;33.70;74.20;;;;;;5050353;28;20726;-71
2022/07/03 08:00:21;;;;;;;3.33;2.20;;;34.00;74.70;;;;;;5050372;28;20213;-72
2022/07/03 08:05:37;;;;;;;2.70;2.30;;;34.00;73.60;;;;;;5050525;28;20590;-72
2022/07/03 08:08:09;;;;;;;4.18;2.40;;;34.30;73.00;;;;;;5050147;28;20202;-71
2022/07/03 08:10:40;;;;;;;2.30;2.10;;;34.10;73.60;;;;;;5052030;28;20206;-72
2022/07/03 08:13:07;;;;;;;3.28;2.30;;;33.70;72.60;;;;;;5036468;28;20723;-72
2022/07/03 08:15:33;;;;;;;3.10;2.30;;;32.50;75.20;;;;;;5054744;28;20266;-72
2022/07/03 08:17:59;;;;;;;2.53;2.30;;;33.60;74.10;;;;;;5036533;28;20290;-72
2022/07/03 08:20:25;;;;;;;4.15;2.80;;;33.20;74.30;;;;;;5053833;28;20698;-72
2022/07/03 08:22:50;;;;;;;2.47;2.28;;;34.70;73.60;;;;;;5036877;28;20206;-72
2022/07/03 08:25:16;;;;;;;5.80;2.65;;;33.60;73.00;;;;;;5054231;28;20211;-72
2022/07/03 08:27:42;;;;;;;2.42;2.22;;;33.40;73.90;;;;;;5054169;28;20185;-72
2022/07/03 08:30:08;;;;;;;3.42;2.40;;;33.20;75.20;;;;;;5054401;28;20614;-72
2022/07/03 08:32:33;;;;;;;2.42;2.22;;;32.60;75.00;;;;;;5053918;28;20203;-72
2022/07/03 08:34:59;;;;;;;4.15;2.30;;;33.00;74.50;;;;;;5054718;28;20269;-73
2022/07/03 08:37:26;;;;;;;2.17;1.98;;;31.70;74.80;;;;;;5054255;28;20223;-73
2022/07/03 08:39:52;;;;;;;2.70;2.50;;;31.90;75.80;;;;;;5053664;28;20179;-73
2022/07/03 08:42:20;;;;;;;2.35;2.15;;;32.70;75.80;;;;;;5054107;28;20575;-73
2022/07/03 08:44:46;;;;;;;4.95;2.20;;;32.70;74.60;;;;;;5053712;28;20230;-74
2022/07/03 08:47:13;;;;;;;2.92;2.63;;;32.80;74.60;;;;;;5053743;28;20215;-74
2022/07/03 08:49:39;;;;;;;6.35;2.17;;;33.10;73.90;;;;;;5035381;28;20210;-73
2022/07/03 08:52:07;;;;;;;2.97;2.60;;;32.60;74.90;;;;;;5053405;28;20622;-73
2022/07/03 08:54:33;;;;;;;3.58;2.35;;;33.00;74.70;;;;;;5054001;28;20184;-73
2022/07/03 08:57:01;;;;;;;3.15;2.40;;;31.80;75.80;;;;;;5054059;28;20215;-73
2022/07/03 08:59:37;;;;;;;3.00;2.35;;;31.90;76.90;;;;;;5052945;28;20211;-73
2022/07/03 09:02:04;;;;;;;3.72;2.45;;;31.60;77.40;;;;;;5053221;28;20242;-73
2022/07/03 09:04:31;;;;;;;2.25;2.05;;;31.50;77.40;;;;;;5035348;28;20265;-73
2022/07/03 09:06:58;;;;;;;3.10;2.15;;;31.70;76.40;;;;;;5053651;28;20228;-73
2022/07/03 09:09:24;;;;;;;2.97;2.20;;;31.30;75.90;;;;;;5053444;28;20730;-72
2022/07/03 09:11:50;;;;;;;2.45;2.25;;;31.50;76.60;;;;;;5052885;28;20298;-72
2022/07/03 09:14:16;;;;;;;4.10;2.20;;;31.20;76.80;;;;;;5053516;28;20249;-72
2022/07/03 09:16:42;;;;;;;2.38;2.05;;;31.60;77.00;;;;;;5053262;28;20199;-72
2022/07/03 09:19:08;;;;;;;2.83;2.50;;;32.20;75.80;;;;;;5053076;28;20628;-73
2022/07/03 09:21:41;;;;;;;2.53;2.15;;;32.10;76.00;;;;;;5053137;28;20211;-73
2022/07/03 09:24:09;;;;;;;3.13;2.53;;;32.70;75.30;;;;;;5058907;28;20175;-72
2022/07/03 09:26:35;;;;;;;2.55;2.33;;;31.90;75.90;;;;;;5035034;28;20208;-73
2022/07/03 09:29:02;;;;;;;3.10;2.90;;;31.60;76.00;;;;;;5052959;28;20203;-73
2022/07/03 09:31:29;;;;;;;2.70;2.40;;;31.30;77.60;;;;;;5052820;28;20253;-72
2022/07/03 09:33:59;;;;;;;3.03;2.72;;;31.50;76.90;;;;;;5053088;28;20213;-73
2022/07/03 09:36:43;;;;;;;2.63;2.20;;;31.00;76.60;;;;;;5035307;28;20585;-73
2022/07/03 09:39:31;;;;;;;5.82;2.83;;;31.10;77.30;;;;;;5053429;28;20265;-73
2022/07/03 09:42:01;;;;;;;3.40;3.10;;;31.60;77.80;;;;;;5053397;28;20215;-72
2022/07/03 09:44:31;;;;;;;5.60;3.28;;;31.20;77.80;;;;;;5056220;28;20235;-73
2022/07/03 09:47:13;;;;;;;3.20;2.17;;;30.40;79.40;;;;;;5052986;28;20236;-72
2022/07/03 09:49:46;;;;;;;5.00;2.92;;;30.00;79.90;;;;;;5052408;28;20653;-73
2022/07/03 09:52:39;;;;;;;2.25;2.08;;;29.70;80.00;;;;;;5034627;28;20211;-73
2022/07/03 09:55:08;;;;;;;6.55;2.35;;;30.00;79.40;;;;;;5034646;28;20219;-74
2022/07/03 09:57:34;;;;;;;2.85;2.42;;;30.10;81.00;;;;;;5052398;28;20172;-73
2022/07/03 10:00:19;;;;;;;2.40;2.20;;;29.40;80.60;;;;;;5052652;28;20184;-73
2022/07/03 10:03:09;;;;;;;2.33;2.13;;;29.30;81.90;;;;;;5034399;28;20683;-73
2022/07/03 10:05:40;;;;;;;2.67;2.30;;;29.60;82.30;;;;;;5034335;28;20298;-74
2022/07/03 10:08:10;;;;;;;3.20;2.45;;;29.50;81.80;;;;;;5051948;28;20297;-71
2022/07/03 10:10:45;;;;;;;2.70;2.50;;;29.50;81.80;;;;;;5034034;28;20253;-73
2022/07/03 10:13:12;;;;;;;3.97;2.70;;;29.40;82.10;;;;;;5052411;28;20237;-73
2022/07/03 10:15:38;;;;;;;3.95;2.40;;;29.30;82.70;;;;;;5052084;28;20579;-73
2022/07/03 10:18:06;;;;;;;4.80;2.55;;;29.10;82.90;;;;;;5052359;28;20174;-72
2022/07/03 10:20:49;;;;;;;4.50;2.25;;;29.10;82.70;;;;;;5033926;28;20226;-74
2022/07/03 10:23:16;;;;;;;5.88;3.25;;;29.80;83.30;;;;;;5052377;28;20358;-74
2022/07/03 10:25:44;;;;;;;2.72;2.45;;;29.30;83.50;;;;;;5051649;28;20695;-73
2022/07/03 10:28:14;;;;;;;2.55;2.20;;;29.20;84.40;;;;;;5051559;28;20212;-73
2022/07/03 10:30:43;;;;;;;4.30;2.88;;;29.40;84.30;;;;;;5051685;28;20591;-74
2022/07/03 10:33:08;;;;;;;2.35;2.15;;;29.10;83.70;;;;;;5052039;28;20180;-73
2022/07/03 10:35:38;;;;;;;4.28;2.08;;;29.50;83.90;;;;;;5033671;28;20584;-74
2022/07/03 10:38:11;;;;;;;2.60;2.40;;;29.60;83.70;;;;;;5051551;28;20211;-70
2022/07/03 10:46:30;;;;;;;3.53;2.50;;;29.20;84.90;;;;;;5059853;28;20218;-73
2022/07/03 10:49:10;;;;;;;3.08;2.20;;;29.30;84.40;;;;;;5051165;28;20218;-72
2022/07/03 10:51:44;;;;;;;2.60;2.40;;;30.30;84.70;;;;;;5051392;28;20195;-73
2022/07/03 10:54:29;;;;;;;3.60;2.22;;;30.60;82.10;;;;;;5051943;28;20258;-73
2022/07/03 10:56:57;;;;;;;3.47;2.20;;;30.40;81.90;;;;;;5051536;28;20242;-73
2022/07/03 10:59:46;;;;;;;2.42;2.10;;;29.90;81.90;;;;;;5050847;28;20208;-73
2022/07/03 11:02:26;;;;;;;1.85;1.75;;;29.30;82.10;;;;;;5052245;28;20302;-73
2022/07/03 11:07:32;;;;;;;2.85;2.13;;;30.60;81.70;;;;;;5057976;28;20704;-72
2022/07/03 11:10:12;;;;;;;2.75;2.10;;;30.00;81.20;;;;;;5054756;28;20215;-73
2022/07/03 11:12:56;;;;;;;2.05;1.85;;;29.70;82.40;;;;;;5051593;28;20262;-73
2022/07/03 11:15:37;;;;;;;2.60;2.10;;;29.50;82.50;;;;;;5033680;28;20593;-73
2022/07/03 11:18:11;;;;;;;2.35;2.13;;;29.70;82.80;;;;;;5033316;28;20207;-72
2022/07/03 11:20:42;;;;;;;1.92;1.75;;;29.90;82.30;;;;;;5055951;28;20226;-73
2022/07/03 11:23:29;;;;;;;2.45;2.17;;;29.90;82.80;;;;;;5063057;28;20275;-73
2022/07/03 11:26:18;;;;;;;2.85;2.17;;;29.70;82.60;;;;;;5055221;28;20253;-73
2022/07/03 11:28:44;;;;;;;2.05;1.90;;;30.00;82.60;;;;;;5052598;28;20210;-73
2022/07/03 11:33:50;;;;;;;2.17;1.75;;;30.60;81.30;;;;;;5057616;28;20222;-73
2022/07/03 11:36:16;;;;;;;2.42;2.00;;;30.70;81.30;;;;;;5054970;28;20179;-73
2022/07/03 11:39:05;;;;;;;2.40;2.10;;;30.60;81.20;;;;;;5035832;28;20258;-73
2022/07/03 11:41:41;;;;;;;3.92;2.30;;;29.90;80.90;;;;;;5040670;28;20280;-73
2022/07/03 11:44:09;;;;;;;3.63;2.28;;;29.60;82.10;;;;;;5036929;28;20199;-74
2022/07/03 11:46:37;;;;;;;2.33;2.13;;;29.30;83.30;;;;;;5052089;28;20298;-73
2022/07/03 11:49:11;;;;;;;2.53;2.33;;;29.20;83.60;;;;;;5051083;28;20208;-73
2022/07/03 11:51:39;;;;;;;3.10;2.28;;;28.80;84.40;;;;;;5051239;28;20200;-74
2022/07/03 11:54:05;;;;;;;2.15;2.00;;;29.30;84.60;;;;;;5052273;28;20225;-73
2022/07/03 11:56:32;;;;;;;2.75;1.70;;;29.60;83.80;;;;;;5051909;28;20210;-73
2022/07/03 11:59:00;;;;;;;3.05;2.53;;;29.70;83.30;;;;;;5052414;28;20207;-73
2022/07/03 12:01:25;;;;;;;2.40;2.20;;;29.70;83.00;;;;;;5051033;28;20211;-73
2022/07/03 12:03:52;;;;;;;3.50;2.17;;;30.20;83.00;;;;;;5050660;28;20562;-74
2022/07/03 12:06:19;;;;;;;2.50;2.05;;;30.80;81.70;;;;;;5051284;28;20191;-73
2022/07/03 12:08:48;;;;;;;2.63;1.80;;;31.20;81.50;;;;;;5051208;28;20219;-73
2022/07/03 12:11:16;;;;;;;2.80;2.00;;;31.30;79.90;;;;;;5051691;28;20600;-73
2022/07/03 12:13:42;;;;;;;2.38;1.88;;;31.20;80.00;;;;;;5051391;28;20215;-73
2022/07/03 12:16:15;;;;;;;3.70;1.75;;;30.80;79.90;;;;;;5050327;28;20211;-73
2022/07/03 12:18:44;;;;;;;3.58;2.17;;;30.60;81.50;;;;;;5051499;28;20254;-73
2022/07/03 12:23:46;;;;;;;2.58;1.80;;;30.70;79.20;;;;;;4990257;28;20228;-74
2022/07/03 12:26:12;;;;;;;1.77;1.52;;;30.60;79.30;;;;;;4993797;28;20209;-75
2022/07/03 12:28:38;;;;;;;2.97;1.65;;;30.40;78.80;;;;;;4978014;28;20714;-76
2022/07/03 12:31:05;;;;;;;1.90;1.80;;;30.90;80.20;;;;;;4974590;28;20292;-75
2022/07/03 12:33:35;;;;;;;2.63;1.70;;;31.40;80.00;;;;;;5012108;28;20197;-75
2022/07/03 12:36:04;;;;;;;2.17;1.80;;;31.60;79.10;;;;;;5011400;28;20216;-75
2022/07/03 12:38:30;;;;;;;2.05;1.60;;;31.60;78.40;;;;;;5010654;28;20220;-75
2022/07/03 12:41:09;;;;;;;2.80;1.70;;;31.30;76.90;;;;;;5010977;28;20217;-75
2022/07/03 12:43:44;;;;;;;3.08;1.70;;;31.20;78.30;;;;;;5016062;28;20562;-75
2022/07/03 12:46:26;;;;;;;3.78;1.85;;;31.20;78.20;;;;;;5021754;28;20209;-76
2022/07/03 12:48:55;;;;;;;3.20;1.85;;;31.10;78.20;;;;;;5021083;28;20180;-76
2022/07/03 12:51:41;;;;;;;2.10;1.88;;;31.10;78.40;;;;;;5013674;28;20532;-76
2022/07/03 12:54:09;;;;;;;2.28;1.92;;;30.90;78.40;;;;;;5011210;28;20219;-76
2022/07/03 12:56:35;;;;;;;1.70;1.60;;;31.00;79.90;;;;;;5012303;28;20629;-76
2022/07/03 12:59:19;;;;;;;2.15;1.85;;;31.10;79.30;;;;;;4996777;28;20209;-76
2022/07/03 13:02:03;;;;;;;2.05;1.85;;;30.60;78.10;;;;;;5014359;28;20274;-76
2022/07/03 13:04:37;;;;;;;2.75;2.05;;;30.50;79.70;;;;;;5013999;28;20222;-75
2022/07/03 13:07:07;;;;;;;2.20;2.00;;;30.80;80.50;;;;;;5013610;28;20207;-76
2022/07/03 13:09:36;;;;;;;2.20;2.10;;;30.20;79.70;;;;;;5013588;28;20282;-75
2022/07/03 13:12:03;;;;;;;3.13;1.70;;;29.80;80.10;;;;;;5014077;28;20208;-75
2022/07/03 13:14:29;;;;;;;2.03;1.92;;;29.90;80.80;;;;;;4995994;28;20213;-76
2022/07/03 13:16:57;;;;;;;1.98;1.83;;;29.80;79.50;;;;;;4996092;28;20209;-76